sensor_id;sensor_type;location;lat;lon;timestamp;P1;durP1;ratioP1;P2;durP2;ratioP2
69588;SDS011;56792;50.644;17.984;2023-05-07T00:01:44;7.50;;;4.20;;
69588;SDS011;56792;50.644;17.984;2023-05-07T00:04:13;8.60;;;4.20;;
69588;SDS011;56792;50.644;17.984;2023-05-07T00:06:41;6.10;;;3.60;;
69588;SDS011;56792;50.644;17.984;2023-05-07T00:09:10;5.30;;;3.50;;
69588;SDS011;56792;50.644;17.984;2023-05-07T00:11:38;10.00;;;3.80;;
69588;SDS011;56792;50.644;17.984;2023-05-07T00:14:07;6.40;;;3.90;;
69588;SDS011;56792;50.644;17.984;2023-05-07T00:16:35;6.30;;;3.70;;
69588;SDS011;56792;50.644;17.984;2023-05-07T00:19:03;6.90;;;3.90;;
69588;SDS011;56792;50.644;17.984;2023-05-07T00:21:31;7.40;;;3.70;;
69588;SDS011;56792;50.644;17.984;2023-05-07T00:23:59;5.90;;;4.10;;
69588;SDS011;56792;50.644;17.984;2023-05-07T00:26:28;6.50;;;4.00;;
69588;SDS011;56792;50.644;17.984;2023-05-07T00:28:56;7.70;;;4.40;;
69588;SDS011;56792;50.644;17.984;2023-05-07T00:31:24;6.40;;;4.10;;
69588;SDS011;56792;50.644;17.984;2023-05-07T00:33:53;7.00;;;4.00;;
69588;SDS011;56792;50.644;17.984;2023-05-07T00:36:21;7.00;;;4.30;;
69588;SDS011;56792;50.644;17.984;2023-05-07T00:38:49;6.20;;;3.80;;
69588;SDS011;56792;50.644;17.984;2023-05-07T00:41:17;6.90;;;3.80;;
69588;SDS011;56792;50.644;17.984;2023-05-07T00:43:46;6.50;;;4.10;;
69588;SDS011;56792;50.644;17.984;2023-05-07T00:46:15;6.90;;;4.30;;
69588;SDS011;56792;50.644;17.984;2023-05-07T00:48:43;5.50;;;3.60;;
69588;SDS011;56792;50.644;17.984;2023-05-07T00:51:12;5.90;;;3.40;;
69588;SDS011;56792;50.644;17.984;2023-05-07T00:53:41;6.10;;;3.90;;
69588;SDS011;56792;50.644;17.984;2023-05-07T00:56:09;6.00;;;3.70;;
69588;SDS011;56792;50.644;17.984;2023-05-07T00:58:38;6.50;;;3.50;;
69588;SDS011;56792;50.644;17.984;2023-05-07T01:01:07;5.70;;;3.30;;
69588;SDS011;56792;50.644;17.984;2023-05-07T01:03:35;4.90;;;3.00;;
69588;SDS011;56792;50.644;17.984;2023-05-07T01:06:04;5.60;;;3.40;;
69588;SDS011;56792;50.644;17.984;2023-05-07T01:08:34;5.70;;;3.50;;
69588;SDS011;56792;50.644;17.984;2023-05-07T01:11:07;4.80;;;3.00;;
69588;SDS011;56792;50.644;17.984;2023-05-07T01:13:36;6.60;;;3.60;;
69588;SDS011;56792;50.644;17.984;2023-05-07T01:16:07;6.40;;;3.20;;
69588;SDS011;56792;50.644;17.984;2023-05-07T01:18:36;4.90;;;3.40;;
69588;SDS011;56792;50.644;17.984;2023-05-07T01:21:05;5.50;;;2.80;;
69588;SDS011;56792;50.644;17.984;2023-05-07T01:23:36;6.10;;;3.30;;
69588;SDS011;56792;50.644;17.984;2023-05-07T01:26:05;5.10;;;3.00;;
69588;SDS011;56792;50.644;17.984;2023-05-07T01:28:34;5.10;;;3.50;;
69588;SDS011;56792;50.644;17.984;2023-05-07T01:31:04;5.20;;;2.90;;
69588;SDS011;56792;50.644;17.984;2023-05-07T01:33:35;4.60;;;3.00;;
69588;SDS011;56792;50.644;17.984;2023-05-07T01:36:07;6.20;;;3.40;;
69588;SDS011;56792;50.644;17.984;2023-05-07T01:38:38;5.30;;;3.10;;
69588;SDS011;56792;50.644;17.984;2023-05-07T01:41:08;5.10;;;2.70;;
69588;SDS011;56792;50.644;17.984;2023-05-07T01:43:37;5.30;;;3.00;;
69588;SDS011;56792;50.644;17.984;2023-05-07T01:46:07;5.90;;;2.80;;
69588;SDS011;56792;50.644;17.984;2023-05-07T01:48:38;6.40;;;3.10;;
69588;SDS011;56792;50.644;17.984;2023-05-07T01:51:08;5.30;;;2.80;;
69588;SDS011;56792;50.644;17.984;2023-05-07T01:53:37;4.60;;;2.60;;
69588;SDS011;56792;50.644;17.984;2023-05-07T01:56:07;4.30;;;2.60;;
69588;SDS011;56792;50.644;17.984;2023-05-07T01:58:36;5.00;;;2.70;;
69588;SDS011;56792;50.644;17.984;2023-05-07T02:01:05;4.20;;;2.80;;
69588;SDS011;56792;50.644;17.984;2023-05-07T02:03:33;4.70;;;2.70;;
69588;SDS011;56792;50.644;17.984;2023-05-07T02:06:06;4.90;;;2.70;;
69588;SDS011;56792;50.644;17.984;2023-05-07T02:08:39;4.50;;;2.80;;
69588;SDS011;56792;50.644;17.984;2023-05-07T02:11:08;6.00;;;2.80;;
69588;SDS011;56792;50.644;17.984;2023-05-07T02:13:36;4.50;;;2.50;;
69588;SDS011;56792;50.644;17.984;2023-05-07T02:16:06;4.40;;;2.40;;
69588;SDS011;56792;50.644;17.984;2023-05-07T02:18:34;3.80;;;2.30;;
69588;SDS011;56792;50.644;17.984;2023-05-07T02:21:03;4.60;;;2.30;;
69588;SDS011;56792;50.644;17.984;2023-05-07T02:23:31;4.30;;;2.30;;
69588;SDS011;56792;50.644;17.984;2023-05-07T02:25:59;4.30;;;2.60;;
69588;SDS011;56792;50.644;17.984;2023-05-07T02:28:28;4.10;;;2.70;;
69588;SDS011;56792;50.644;17.984;2023-05-07T02:31:00;5.30;;;2.40;;
69588;SDS011;56792;50.644;17.984;2023-05-07T02:33:29;4.30;;;2.40;;
69588;SDS011;56792;50.644;17.984;2023-05-07T02:36:05;4.80;;;2.40;;
69588;SDS011;56792;50.644;17.984;2023-05-07T02:38:35;5.40;;;2.50;;
69588;SDS011;56792;50.644;17.984;2023-05-07T02:41:04;4.50;;;2.10;;
69588;SDS011;56792;50.644;17.984;2023-05-07T02:43:32;4.40;;;2.20;;
69588;SDS011;56792;50.644;17.984;2023-05-07T02:46:05;4.90;;;2.30;;
69588;SDS011;56792;50.644;17.984;2023-05-07T02:48:36;4.60;;;2.50;;
69588;SDS011;56792;50.644;17.984;2023-05-07T02:51:05;5.40;;;2.30;;
69588;SDS011;56792;50.644;17.984;2023-05-07T02:53:33;5.10;;;2.80;;
69588;SDS011;56792;50.644;17.984;2023-05-07T02:56:02;3.90;;;2.70;;
69588;SDS011;56792;50.644;17.984;2023-05-07T02:58:32;6.40;;;2.60;;
69588;SDS011;56792;50.644;17.984;2023-05-07T03:01:01;5.60;;;2.30;;
69588;SDS011;56792;50.644;17.984;2023-05-07T03:03:42;4.70;;;2.80;;
69588;SDS011;56792;50.644;17.984;2023-05-07T03:06:11;5.50;;;2.70;;
69588;SDS011;56792;50.644;17.984;2023-05-07T03:08:39;4.60;;;2.90;;
69588;SDS011;56792;50.644;17.984;2023-05-07T03:11:07;5.80;;;2.90;;
69588;SDS011;56792;50.644;17.984;2023-05-07T03:13:35;5.30;;;3.20;;
69588;SDS011;56792;50.644;17.984;2023-05-07T03:16:04;4.30;;;2.80;;
69588;SDS011;56792;50.644;17.984;2023-05-07T03:18:33;5.00;;;2.80;;
69588;SDS011;56792;50.644;17.984;2023-05-07T03:21:02;5.40;;;3.10;;
69588;SDS011;56792;50.644;17.984;2023-05-07T03:23:30;4.40;;;3.10;;
69588;SDS011;56792;50.644;17.984;2023-05-07T03:25:58;4.50;;;2.80;;
69588;SDS011;56792;50.644;17.984;2023-05-07T03:28:26;5.50;;;3.10;;
69588;SDS011;56792;50.644;17.984;2023-05-07T03:30:59;6.70;;;3.50;;
69588;SDS011;56792;50.644;17.984;2023-05-07T03:33:27;6.00;;;3.20;;
69588;SDS011;56792;50.644;17.984;2023-05-07T03:35:56;5.50;;;3.40;;
69588;SDS011;56792;50.644;17.984;2023-05-07T03:38:25;6.00;;;3.00;;
69588;SDS011;56792;50.644;17.984;2023-05-07T03:40:54;4.40;;;2.60;;
69588;SDS011;56792;50.644;17.984;2023-05-07T03:43:22;4.70;;;3.00;;
69588;SDS011;56792;50.644;17.984;2023-05-07T03:45:57;4.90;;;3.00;;
69588;SDS011;56792;50.644;17.984;2023-05-07T03:48:27;4.20;;;2.80;;
69588;SDS011;56792;50.644;17.984;2023-05-07T03:50:57;4.90;;;3.00;;
69588;SDS011;56792;50.644;17.984;2023-05-07T03:53:29;4.70;;;3.00;;
69588;SDS011;56792;50.644;17.984;2023-05-07T03:55:57;4.60;;;3.00;;
69588;SDS011;56792;50.644;17.984;2023-05-07T03:58:26;4.80;;;2.80;;
69588;SDS011;56792;50.644;17.984;2023-05-07T04:00:55;5.90;;;3.10;;
69588;SDS011;56792;50.644;17.984;2023-05-07T04:03:26;4.90;;;3.10;;
69588;SDS011;56792;50.644;17.984;2023-05-07T04:05:56;5.70;;;2.80;;
69588;SDS011;56792;50.644;17.984;2023-05-07T04:08:24;5.10;;;3.10;;
69588;SDS011;56792;50.644;17.984;2023-05-07T04:10:55;4.30;;;2.80;;
69588;SDS011;56792;50.644;17.984;2023-05-07T04:13:25;4.90;;;2.80;;
69588;SDS011;56792;50.644;17.984;2023-05-07T04:15:54;5.10;;;2.80;;
69588;SDS011;56792;50.644;17.984;2023-05-07T04:18:23;4.90;;;2.90;;
69588;SDS011;56792;50.644;17.984;2023-05-07T04:20:52;6.30;;;3.00;;
69588;SDS011;56792;50.644;17.984;2023-05-07T04:23:20;4.70;;;2.90;;
69588;SDS011;56792;50.644;17.984;2023-05-07T04:25:48;5.90;;;2.60;;
69588;SDS011;56792;50.644;17.984;2023-05-07T04:28:25;4.60;;;2.70;;
69588;SDS011;56792;50.644;17.984;2023-05-07T04:30:54;5.80;;;2.80;;
69588;SDS011;56792;50.644;17.984;2023-05-07T04:33:23;4.20;;;2.50;;
69588;SDS011;56792;50.644;17.984;2023-05-07T04:35:51;5.20;;;2.90;;
69588;SDS011;56792;50.644;17.984;2023-05-07T04:38:19;5.00;;;2.80;;
69588;SDS011;56792;50.644;17.984;2023-05-07T04:40:49;5.10;;;3.30;;
69588;SDS011;56792;50.644;17.984;2023-05-07T04:43:20;5.00;;;3.00;;
69588;SDS011;56792;50.644;17.984;2023-05-07T04:45:51;3.80;;;2.40;;
69588;SDS011;56792;50.644;17.984;2023-05-07T04:48:19;4.40;;;2.70;;
69588;SDS011;56792;50.644;17.984;2023-05-07T04:50:48;4.10;;;2.50;;
69588;SDS011;56792;50.644;17.984;2023-05-07T04:53:18;4.50;;;2.50;;
69588;SDS011;56792;50.644;17.984;2023-05-07T04:55:46;4.00;;;2.40;;
69588;SDS011;56792;50.644;17.984;2023-05-07T04:58:15;5.10;;;3.30;;
69588;SDS011;56792;50.644;17.984;2023-05-07T05:00:44;4.20;;;2.90;;
69588;SDS011;56792;50.644;17.984;2023-05-07T05:03:13;5.40;;;3.20;;
69588;SDS011;56792;50.644;17.984;2023-05-07T05:05:42;5.00;;;2.80;;
69588;SDS011;56792;50.644;17.984;2023-05-07T05:08:10;4.40;;;2.60;;
69588;SDS011;56792;50.644;17.984;2023-05-07T05:10:39;4.50;;;3.00;;
69588;SDS011;56792;50.644;17.984;2023-05-07T05:13:08;4.30;;;2.90;;
69588;SDS011;56792;50.644;17.984;2023-05-07T05:15:36;6.50;;;3.00;;
69588;SDS011;56792;50.644;17.984;2023-05-07T05:18:04;4.90;;;3.10;;
69588;SDS011;56792;50.644;17.984;2023-05-07T05:20:33;4.20;;;2.70;;
69588;SDS011;56792;50.644;17.984;2023-05-07T05:23:01;6.80;;;2.80;;
69588;SDS011;56792;50.644;17.984;2023-05-07T05:25:30;5.60;;;2.70;;
69588;SDS011;56792;50.644;17.984;2023-05-07T05:27:59;4.60;;;2.40;;
69588;SDS011;56792;50.644;17.984;2023-05-07T05:30:28;4.30;;;2.30;;
69588;SDS011;56792;50.644;17.984;2023-05-07T05:32:56;3.50;;;2.20;;
69588;SDS011;56792;50.644;17.984;2023-05-07T05:35:26;4.90;;;2.30;;
69588;SDS011;56792;50.644;17.984;2023-05-07T05:37:55;4.00;;;2.30;;
69588;SDS011;56792;50.644;17.984;2023-05-07T05:40:23;4.50;;;2.70;;
69588;SDS011;56792;50.644;17.984;2023-05-07T05:42:52;4.40;;;2.50;;
69588;SDS011;56792;50.644;17.984;2023-05-07T05:45:20;4.80;;;3.00;;
69588;SDS011;56792;50.644;17.984;2023-05-07T05:47:48;4.30;;;2.90;;
69588;SDS011;56792;50.644;17.984;2023-05-07T05:50:17;6.00;;;3.60;;
69588;SDS011;56792;50.644;17.984;2023-05-07T05:52:45;6.30;;;4.50;;
69588;SDS011;56792;50.644;17.984;2023-05-07T05:55:15;5.40;;;3.40;;
69588;SDS011;56792;50.644;17.984;2023-05-07T05:57:44;7.30;;;2.70;;
69588;SDS011;56792;50.644;17.984;2023-05-07T06:00:13;3.90;;;2.40;;
69588;SDS011;56792;50.644;17.984;2023-05-07T06:02:45;3.60;;;2.40;;
69588;SDS011;56792;50.644;17.984;2023-05-07T06:05:17;4.10;;;2.40;;
69588;SDS011;56792;50.644;17.984;2023-05-07T06:07:47;4.50;;;2.50;;
69588;SDS011;56792;50.644;17.984;2023-05-07T06:10:15;3.60;;;1.80;;
69588;SDS011;56792;50.644;17.984;2023-05-07T06:12:44;4.30;;;2.50;;
69588;SDS011;56792;50.644;17.984;2023-05-07T06:15:13;4.50;;;2.70;;
69588;SDS011;56792;50.644;17.984;2023-05-07T06:17:41;4.50;;;2.50;;
69588;SDS011;56792;50.644;17.984;2023-05-07T06:20:10;4.90;;;2.10;;
69588;SDS011;56792;50.644;17.984;2023-05-07T06:22:39;4.10;;;2.50;;
69588;SDS011;56792;50.644;17.984;2023-05-07T06:25:09;3.90;;;2.40;;
69588;SDS011;56792;50.644;17.984;2023-05-07T06:27:37;4.00;;;2.40;;
69588;SDS011;56792;50.644;17.984;2023-05-07T06:30:08;4.40;;;2.60;;
69588;SDS011;56792;50.644;17.984;2023-05-07T06:32:37;6.20;;;2.70;;
69588;SDS011;56792;50.644;17.984;2023-05-07T06:35:08;3.70;;;2.30;;
69588;SDS011;56792;50.644;17.984;2023-05-07T06:37:37;5.20;;;2.60;;
69588;SDS011;56792;50.644;17.984;2023-05-07T06:40:09;4.10;;;2.40;;
69588;SDS011;56792;50.644;17.984;2023-05-07T06:42:39;4.10;;;2.40;;
69588;SDS011;56792;50.644;17.984;2023-05-07T06:45:23;4.30;;;2.40;;
69588;SDS011;56792;50.644;17.984;2023-05-07T06:47:53;4.20;;;2.50;;
69588;SDS011;56792;50.644;17.984;2023-05-07T06:50:22;4.70;;;2.70;;
69588;SDS011;56792;50.644;17.984;2023-05-07T06:52:50;6.30;;;2.90;;
69588;SDS011;56792;50.644;17.984;2023-05-07T06:55:19;4.40;;;3.40;;
69588;SDS011;56792;50.644;17.984;2023-05-07T06:57:47;3.70;;;2.40;;
69588;SDS011;56792;50.644;17.984;2023-05-07T07:00:17;4.00;;;2.80;;
69588;SDS011;56792;50.644;17.984;2023-05-07T07:02:51;4.20;;;2.60;;
69588;SDS011;56792;50.644;17.984;2023-05-07T07:05:21;3.80;;;2.70;;
69588;SDS011;56792;50.644;17.984;2023-05-07T07:07:49;5.40;;;3.00;;
69588;SDS011;56792;50.644;17.984;2023-05-07T07:10:19;4.30;;;3.20;;
69588;SDS011;56792;50.644;17.984;2023-05-07T07:12:49;5.10;;;3.10;;
69588;SDS011;56792;50.644;17.984;2023-05-07T07:15:20;4.80;;;3.20;;
69588;SDS011;56792;50.644;17.984;2023-05-07T07:17:49;5.50;;;3.30;;
69588;SDS011;56792;50.644;17.984;2023-05-07T07:20:17;6.20;;;3.30;;
69588;SDS011;56792;50.644;17.984;2023-05-07T07:22:45;3.80;;;2.90;;
69588;SDS011;56792;50.644;17.984;2023-05-07T07:25:15;4.20;;;3.00;;
69588;SDS011;56792;50.644;17.984;2023-05-07T07:27:44;4.20;;;3.20;;
69588;SDS011;56792;50.644;17.984;2023-05-07T07:30:13;6.50;;;3.20;;
69588;SDS011;56792;50.644;17.984;2023-05-07T07:32:42;4.50;;;3.30;;
69588;SDS011;56792;50.644;17.984;2023-05-07T07:35:11;4.80;;;3.10;;
69588;SDS011;56792;50.644;17.984;2023-05-07T07:37:39;4.40;;;2.90;;
69588;SDS011;56792;50.644;17.984;2023-05-07T07:40:10;4.50;;;2.50;;
69588;SDS011;56792;50.644;17.984;2023-05-07T07:42:39;4.60;;;2.90;;
69588;SDS011;56792;50.644;17.984;2023-05-07T07:45:09;4.30;;;3.20;;
69588;SDS011;56792;50.644;17.984;2023-05-07T07:47:40;4.20;;;3.20;;
69588;SDS011;56792;50.644;17.984;2023-05-07T07:50:10;8.00;;;3.40;;
69588;SDS011;56792;50.644;17.984;2023-05-07T07:52:39;5.80;;;3.30;;
69588;SDS011;56792;50.644;17.984;2023-05-07T07:55:09;4.50;;;3.30;;
69588;SDS011;56792;50.644;17.984;2023-05-07T07:57:37;4.80;;;3.40;;
69588;SDS011;56792;50.644;17.984;2023-05-07T08:00:09;5.00;;;3.10;;
69588;SDS011;56792;50.644;17.984;2023-05-07T08:02:44;4.30;;;3.40;;
69588;SDS011;56792;50.644;17.984;2023-05-07T08:05:17;4.90;;;3.60;;
69588;SDS011;56792;50.644;17.984;2023-05-07T08:07:47;5.50;;;3.30;;
69588;SDS011;56792;50.644;17.984;2023-05-07T08:10:19;4.80;;;3.30;;
69588;SDS011;56792;50.644;17.984;2023-05-07T08:12:50;4.80;;;2.90;;
69588;SDS011;56792;50.644;17.984;2023-05-07T08:15:19;5.10;;;3.50;;
69588;SDS011;56792;50.644;17.984;2023-05-07T08:17:47;4.30;;;3.00;;
69588;SDS011;56792;50.644;17.984;2023-05-07T08:20:16;4.20;;;3.00;;
69588;SDS011;56792;50.644;17.984;2023-05-07T08:22:44;4.80;;;2.50;;
69588;SDS011;56792;50.644;17.984;2023-05-07T08:25:13;4.50;;;2.50;;
69588;SDS011;56792;50.644;17.984;2023-05-07T08:27:41;4.90;;;3.00;;
69588;SDS011;56792;50.644;17.984;2023-05-07T08:30:13;4.80;;;3.20;;
69588;SDS011;56792;50.644;17.984;2023-05-07T08:32:43;4.00;;;2.90;;
69588;SDS011;56792;50.644;17.984;2023-05-07T08:35:11;4.40;;;3.10;;
69588;SDS011;56792;50.644;17.984;2023-05-07T08:37:39;4.00;;;2.60;;
69588;SDS011;56792;50.644;17.984;2023-05-07T08:40:09;4.50;;;2.90;;
69588;SDS011;56792;50.644;17.984;2023-05-07T08:42:38;5.40;;;3.40;;
69588;SDS011;56792;50.644;17.984;2023-05-07T08:45:10;4.60;;;3.00;;
69588;SDS011;56792;50.644;17.984;2023-05-07T08:47:44;4.40;;;2.90;;
69588;SDS011;56792;50.644;17.984;2023-05-07T08:50:18;4.70;;;3.70;;
69588;SDS011;56792;50.644;17.984;2023-05-07T08:52:48;5.50;;;3.60;;
69588;SDS011;56792;50.644;17.984;2023-05-07T08:55:17;5.50;;;4.00;;
69588;SDS011;56792;50.644;17.984;2023-05-07T08:57:47;5.60;;;4.40;;
69588;SDS011;56792;50.644;17.984;2023-05-07T09:00:16;6.60;;;4.20;;
69588;SDS011;56792;50.644;17.984;2023-05-07T09:02:45;5.40;;;3.50;;
69588;SDS011;56792;50.644;17.984;2023-05-07T09:05:14;5.40;;;3.60;;
69588;SDS011;56792;50.644;17.984;2023-05-07T09:07:43;4.60;;;3.30;;
69588;SDS011;56792;50.644;17.984;2023-05-07T09:10:13;4.50;;;3.30;;
69588;SDS011;56792;50.644;17.984;2023-05-07T09:12:42;4.90;;;3.40;;
69588;SDS011;56792;50.644;17.984;2023-05-07T09:15:13;4.20;;;3.00;;
69588;SDS011;56792;50.644;17.984;2023-05-07T09:17:43;5.50;;;3.10;;
69588;SDS011;56792;50.644;17.984;2023-05-07T09:20:12;4.70;;;3.20;;
69588;SDS011;56792;50.644;17.984;2023-05-07T09:22:41;4.20;;;2.80;;
69588;SDS011;56792;50.644;17.984;2023-05-07T09:25:12;5.70;;;3.40;;
69588;SDS011;56792;50.644;17.984;2023-05-07T09:27:42;5.00;;;3.40;;
69588;SDS011;56792;50.644;17.984;2023-05-07T09:30:12;4.60;;;3.20;;
69588;SDS011;56792;50.644;17.984;2023-05-07T09:32:41;5.00;;;3.80;;
69588;SDS011;56792;50.644;17.984;2023-05-07T09:35:16;4.60;;;3.30;;
69588;SDS011;56792;50.644;17.984;2023-05-07T09:37:46;5.70;;;3.10;;
69588;SDS011;56792;50.644;17.984;2023-05-07T09:40:22;4.80;;;3.10;;
69588;SDS011;56792;50.644;17.984;2023-05-07T09:42:51;4.80;;;2.90;;
69588;SDS011;56792;50.644;17.984;2023-05-07T09:45:23;4.90;;;3.60;;
69588;SDS011;56792;50.644;17.984;2023-05-07T09:47:55;6.00;;;3.70;;
69588;SDS011;56792;50.644;17.984;2023-05-07T09:50:28;5.80;;;4.00;;
69588;SDS011;56792;50.644;17.984;2023-05-07T09:53:01;4.60;;;3.60;;
69588;SDS011;56792;50.644;17.984;2023-05-07T09:55:31;4.10;;;3.20;;
69588;SDS011;56792;50.644;17.984;2023-05-07T09:58:01;5.30;;;4.00;;
69588;SDS011;56792;50.644;17.984;2023-05-07T10:00:33;5.40;;;3.90;;
69588;SDS011;56792;50.644;17.984;2023-05-07T10:03:06;6.20;;;3.90;;
69588;SDS011;56792;50.644;17.984;2023-05-07T10:06:02;5.00;;;3.90;;
69588;SDS011;56792;50.644;17.984;2023-05-07T10:08:32;4.60;;;3.80;;
69588;SDS011;56792;50.644;17.984;2023-05-07T10:11:02;5.20;;;3.80;;
69588;SDS011;56792;50.644;17.984;2023-05-07T10:13:31;5.30;;;4.40;;
69588;SDS011;56792;50.644;17.984;2023-05-07T10:16:03;5.40;;;3.90;;
69588;SDS011;56792;50.644;17.984;2023-05-07T10:18:37;4.60;;;4.00;;
69588;SDS011;56792;50.644;17.984;2023-05-07T10:21:15;5.10;;;3.70;;
69588;SDS011;56792;50.644;17.984;2023-05-07T10:23:48;5.90;;;4.40;;
69588;SDS011;56792;50.644;17.984;2023-05-07T10:26:20;4.70;;;3.80;;
69588;SDS011;56792;50.644;17.984;2023-05-07T10:28:54;5.40;;;3.40;;
69588;SDS011;56792;50.644;17.984;2023-05-07T10:31:48;5.00;;;3.40;;
69588;SDS011;56792;50.644;17.984;2023-05-07T10:34:26;4.50;;;3.50;;
69588;SDS011;56792;50.644;17.984;2023-05-07T10:37:00;5.00;;;3.80;;
69588;SDS011;56792;50.644;17.984;2023-05-07T10:39:30;4.70;;;3.80;;
69588;SDS011;56792;50.644;17.984;2023-05-07T10:42:08;4.50;;;3.50;;
69588;SDS011;56792;50.644;17.984;2023-05-07T10:44:37;7.60;;;5.90;;
69588;SDS011;56792;50.644;17.984;2023-05-07T10:47:09;7.20;;;6.00;;
69588;SDS011;56792;50.644;17.984;2023-05-07T10:53:23;4.90;;;3.70;;
69588;SDS011;56792;50.644;17.984;2023-05-07T10:56:26;4.60;;;3.50;;
69588;SDS011;56792;50.644;17.984;2023-05-07T10:59:36;5.20;;;4.00;;
69588;SDS011;56792;50.644;17.984;2023-05-07T11:02:17;4.80;;;3.20;;
69588;SDS011;56792;50.644;17.984;2023-05-07T11:05:19;5.20;;;3.60;;
69588;SDS011;56792;50.644;17.984;2023-05-07T11:07:55;4.60;;;3.30;;
69588;SDS011;56792;50.644;17.984;2023-05-07T11:10:47;4.60;;;3.00;;
69588;SDS011;56792;50.644;17.984;2023-05-07T11:13:44;4.20;;;2.90;;
69588;SDS011;56792;50.644;17.984;2023-05-07T11:16:23;4.40;;;3.10;;
69588;SDS011;56792;50.644;17.984;2023-05-07T11:19:01;4.70;;;4.10;;
69588;SDS011;56792;50.644;17.984;2023-05-07T11:21:37;6.00;;;4.40;;
69588;SDS011;56792;50.644;17.984;2023-05-07T11:24:12;6.30;;;4.40;;
69588;SDS011;56792;50.644;17.984;2023-05-07T11:27:02;5.20;;;4.20;;
69588;SDS011;56792;50.644;17.984;2023-05-07T11:29:31;6.80;;;4.50;;
69588;SDS011;56792;50.644;17.984;2023-05-07T11:32:06;10.40;;;6.10;;
69588;SDS011;56792;50.644;17.984;2023-05-07T11:34:40;6.10;;;4.50;;
69588;SDS011;56792;50.644;17.984;2023-05-07T11:37:09;6.20;;;4.50;;
69588;SDS011;56792;50.644;17.984;2023-05-07T11:39:47;5.50;;;4.20;;
69588;SDS011;56792;50.644;17.984;2023-05-07T11:42:28;5.40;;;3.90;;
69588;SDS011;56792;50.644;17.984;2023-05-07T11:44:57;5.80;;;4.40;;
69588;SDS011;56792;50.644;17.984;2023-05-07T11:47:25;5.80;;;4.10;;
69588;SDS011;56792;50.644;17.984;2023-05-07T11:49:57;7.10;;;4.00;;
69588;SDS011;56792;50.644;17.984;2023-05-07T11:52:31;5.60;;;4.10;;
69588;SDS011;56792;50.644;17.984;2023-05-07T11:55:01;5.30;;;3.60;;
69588;SDS011;56792;50.644;17.984;2023-05-07T11:57:30;5.20;;;3.60;;
69588;SDS011;56792;50.644;17.984;2023-05-07T12:00:01;4.60;;;3.20;;
69588;SDS011;56792;50.644;17.984;2023-05-07T12:02:39;6.50;;;3.70;;
69588;SDS011;56792;50.644;17.984;2023-05-07T12:05:08;7.40;;;4.60;;
69588;SDS011;56792;50.644;17.984;2023-05-07T12:07:37;7.30;;;3.30;;
69588;SDS011;56792;50.644;17.984;2023-05-07T12:10:06;5.20;;;3.40;;
69588;SDS011;56792;50.644;17.984;2023-05-07T12:12:39;4.80;;;3.80;;
69588;SDS011;56792;50.644;17.984;2023-05-07T12:15:09;4.80;;;3.20;;
69588;SDS011;56792;50.644;17.984;2023-05-07T12:17:38;5.50;;;3.30;;
69588;SDS011;56792;50.644;17.984;2023-05-07T12:20:09;5.80;;;3.20;;
69588;SDS011;56792;50.644;17.984;2023-05-07T12:22:38;4.40;;;3.00;;
69588;SDS011;56792;50.644;17.984;2023-05-07T12:25:09;5.50;;;3.90;;
69588;SDS011;56792;50.644;17.984;2023-05-07T12:27:38;4.60;;;3.50;;
69588;SDS011;56792;50.644;17.984;2023-05-07T12:30:11;4.00;;;3.00;;
69588;SDS011;56792;50.644;17.984;2023-05-07T12:32:40;4.20;;;3.20;;
69588;SDS011;56792;50.644;17.984;2023-05-07T12:35:09;4.00;;;2.80;;
69588;SDS011;56792;50.644;17.984;2023-05-07T12:37:37;4.70;;;3.40;;
69588;SDS011;56792;50.644;17.984;2023-05-07T12:40:08;5.40;;;3.60;;
69588;SDS011;56792;50.644;17.984;2023-05-07T12:42:39;4.70;;;3.20;;
69588;SDS011;56792;50.644;17.984;2023-05-07T12:45:11;5.30;;;3.50;;
69588;SDS011;56792;50.644;17.984;2023-05-07T12:47:45;5.00;;;3.50;;
69588;SDS011;56792;50.644;17.984;2023-05-07T12:50:14;7.60;;;3.80;;
69588;SDS011;56792;50.644;17.984;2023-05-07T12:52:43;6.30;;;4.10;;
69588;SDS011;56792;50.644;17.984;2023-05-07T12:55:16;7.20;;;4.00;;
69588;SDS011;56792;50.644;17.984;2023-05-07T12:57:47;6.80;;;4.10;;
69588;SDS011;56792;50.644;17.984;2023-05-07T13:00:17;6.30;;;4.40;;
69588;SDS011;56792;50.644;17.984;2023-05-07T13:02:59;6.40;;;3.80;;
69588;SDS011;56792;50.644;17.984;2023-05-07T13:05:27;4.70;;;3.00;;
69588;SDS011;56792;50.644;17.984;2023-05-07T13:07:55;6.90;;;3.60;;
69588;SDS011;56792;50.644;17.984;2023-05-07T13:10:24;4.80;;;3.30;;
69588;SDS011;56792;50.644;17.984;2023-05-07T13:12:53;6.00;;;3.70;;
69588;SDS011;56792;50.644;17.984;2023-05-07T13:15:22;5.70;;;4.00;;
69588;SDS011;56792;50.644;17.984;2023-05-07T13:17:50;6.50;;;4.30;;
69588;SDS011;56792;50.644;17.984;2023-05-07T13:20:18;5.10;;;3.20;;
69588;SDS011;56792;50.644;17.984;2023-05-07T13:22:47;4.30;;;3.10;;
69588;SDS011;56792;50.644;17.984;2023-05-07T13:25:15;6.10;;;3.70;;
69588;SDS011;56792;50.644;17.984;2023-05-07T13:27:43;7.70;;;4.50;;
69588;SDS011;56792;50.644;17.984;2023-05-07T13:30:12;5.40;;;3.10;;
69588;SDS011;56792;50.644;17.984;2023-05-07T13:32:41;5.10;;;3.20;;
69588;SDS011;56792;50.644;17.984;2023-05-07T13:35:09;3.90;;;2.60;;
69588;SDS011;56792;50.644;17.984;2023-05-07T13:37:37;4.70;;;3.20;;
69588;SDS011;56792;50.644;17.984;2023-05-07T13:40:08;6.10;;;3.50;;
69588;SDS011;56792;50.644;17.984;2023-05-07T13:42:37;6.70;;;3.20;;
69588;SDS011;56792;50.644;17.984;2023-05-07T13:45:08;4.80;;;3.20;;
69588;SDS011;56792;50.644;17.984;2023-05-07T13:47:37;4.80;;;3.10;;
69588;SDS011;56792;50.644;17.984;2023-05-07T13:50:07;10.10;;;7.50;;
69588;SDS011;56792;50.644;17.984;2023-05-07T13:52:38;4.80;;;3.50;;
69588;SDS011;56792;50.644;17.984;2023-05-07T13:55:08;5.30;;;3.50;;
69588;SDS011;56792;50.644;17.984;2023-05-07T13:57:37;5.80;;;4.10;;
69588;SDS011;56792;50.644;17.984;2023-05-07T14:00:09;4.90;;;3.50;;
69588;SDS011;56792;50.644;17.984;2023-05-07T14:02:42;5.60;;;3.80;;
69588;SDS011;56792;50.644;17.984;2023-05-07T14:05:10;6.60;;;4.40;;
69588;SDS011;56792;50.644;17.984;2023-05-07T14:07:40;5.10;;;3.50;;
69588;SDS011;56792;50.644;17.984;2023-05-07T14:10:09;4.60;;;3.30;;
69588;SDS011;56792;50.644;17.984;2023-05-07T14:12:38;5.70;;;3.50;;
69588;SDS011;56792;50.644;17.984;2023-05-07T14:15:08;5.60;;;4.10;;
69588;SDS011;56792;50.644;17.984;2023-05-07T14:17:37;5.10;;;3.50;;
69588;SDS011;56792;50.644;17.984;2023-05-07T14:20:08;4.60;;;3.20;;
69588;SDS011;56792;50.644;17.984;2023-05-07T14:22:37;4.90;;;3.50;;
69588;SDS011;56792;50.644;17.984;2023-05-07T14:25:07;5.30;;;3.50;;
69588;SDS011;56792;50.644;17.984;2023-05-07T14:27:36;6.30;;;4.00;;
69588;SDS011;56792;50.644;17.984;2023-05-07T14:30:06;5.90;;;4.30;;
69588;SDS011;56792;50.644;17.984;2023-05-07T14:32:36;7.30;;;5.40;;
69588;SDS011;56792;50.644;17.984;2023-05-07T14:35:05;4.80;;;3.60;;
69588;SDS011;56792;50.644;17.984;2023-05-07T14:37:34;5.20;;;3.70;;
69588;SDS011;56792;50.644;17.984;2023-05-07T14:40:04;6.00;;;3.90;;
69588;SDS011;56792;50.644;17.984;2023-05-07T14:42:34;6.90;;;3.70;;
69588;SDS011;56792;50.644;17.984;2023-05-07T14:45:03;5.30;;;3.60;;
69588;SDS011;56792;50.644;17.984;2023-05-07T14:47:32;5.70;;;4.00;;
69588;SDS011;56792;50.644;17.984;2023-05-07T14:50:01;9.90;;;6.00;;
69588;SDS011;56792;50.644;17.984;2023-05-07T14:52:30;9.70;;;5.50;;
69588;SDS011;56792;50.644;17.984;2023-05-07T14:54:58;17.30;;;8.70;;
69588;SDS011;56792;50.644;17.984;2023-05-07T14:57:27;8.10;;;5.30;;